Time;durP1;ratioP1;P1;durP2;ratioP2;P2;SDS_P1;SDS_P2;PMS_P1;PMS_P2;Temp;Humidity;BMP_temperature;BMP_pressure;BME280_temperature;BME280_humidity;BME280_pressure;Samples;Min_cycle;Max_cycle;Signal;HPM_P1;HPM_P2
2022/01/14 00:02:32;;;;;;;24.17;9.83;;;;;;;4.35;100.00;101690.08;4890092;60;1139005;-71
2022/01/14 00:07:38;;;;;;;19.37;9.07;;;;;;;4.35;100.00;101692.25;4979463;59;1137141;-74
2022/01/14 00:12:52;;;;;;;16.23;7.30;;;;;;;4.37;100.00;101677.80;4910652;59;1137014;-76
2022/01/14 00:17:54;;;;;;;22.07;7.47;;;;;;;4.38;100.00;101667.72;4891500;60;1136984;-71
2022/01/14 00:23:00;;;;;;;14.90;7.25;;;;;;;4.40;100.00;101669.84;4891615;60;1137448;-76
2022/01/14 00:33:29;;;;;;;16.23;7.25;;;;;;;4.42;100.00;101677.20;4891232;60;1139109;-74
2022/01/14 00:38:35;;;;;;;22.67;8.70;;;;;;;4.42;100.00;101673.27;4890517;60;1139147;-74
2022/01/14 00:43:43;;;;;;;28.17;9.03;;;;;;;4.42;100.00;101668.03;4890317;60;1139175;-72
2022/01/14 00:48:49;;;;;;;23.32;8.25;;;;;;;4.44;100.00;101660.95;4890054;60;1139277;-74
2022/01/14 00:53:55;;;;;;;12.70;6.13;;;;;;;4.47;100.00;101666.94;4890372;60;1139352;-71
2022/01/14 00:59:16;;;;;;;18.83;7.10;;;;;;;4.49;100.00;101662.97;4882509;59;1139387;-75
2022/01/14 01:04:29;;;;;;;14.93;7.17;;;;;;;4.53;100.00;101651.48;4921543;60;1139348;-72
2022/01/14 01:09:35;;;;;;;21.50;6.20;;;;;;;4.54;100.00;101655.36;4851502;59;1138929;-72
2022/01/14 01:14:56;;;;;;;14.73;7.57;;;;;;;4.56;100.00;101643.52;5048264;58;1139141;-75
2022/01/14 01:19:55;;;;;;;16.87;7.27;;;;;;;4.59;100.00;101649.94;5011130;58;1139087;-75
2022/01/14 01:25:01;;;;;;;16.43;5.83;;;;;;;4.60;100.00;101645.95;4891485;59;1139458;-72
2022/01/14 01:30:47;;;;;;;16.67;5.47;;;;;;;4.60;100.00;101630.23;4889958;60;1139098;-72
2022/01/14 01:35:21;;;;;;;16.67;5.13;;;;;;;4.60;100.00;101602.73;4891021;60;1139461;-70
2022/01/14 01:40:28;;;;;;;11.63;5.80;;;;;;;4.62;100.00;101609.23;4889660;60;1139307;-73
2022/01/14 01:45:34;;;;;;;17.00;5.97;;;;;;;4.58;100.00;101583.59;4890166;60;1139193;-71
2022/01/14 01:50:39;;;;;;;11.47;5.60;;;;;;;4.55;100.00;101580.25;4889897;60;1139344;-69
2022/01/14 01:55:47;;;;;;;17.23;6.57;;;;;;;4.51;100.00;101580.80;4892252;60;1139404;-73
2022/01/14 02:00:52;;;;;;;14.77;5.27;;;;;;;4.48;100.00;101574.81;4902651;60;1139380;-72
2022/01/14 02:05:58;;;;;;;17.27;5.00;;;;;;;4.48;100.00;101587.91;4901256;60;1139053;-68
2022/01/14 02:11:05;;;;;;;14.90;6.57;;;;;;;4.47;100.00;101580.95;4942128;59;1139041;-76
2022/01/14 02:16:30;;;;;;;16.63;6.97;;;;;;;4.47;100.00;101562.16;4977584;59;1138946;-75
2022/01/14 02:26:52;;;;;;;19.60;7.17;;;;;;;4.41;100.00;101555.86;4977651;59;1139159;-73
2022/01/14 02:31:57;;;;;;;21.97;7.67;;;;;;;4.39;100.00;101541.09;4977318;59;1139012;-71
2022/01/14 02:37:04;;;;;;;15.90;5.50;;;;;;;4.38;100.00;101553.34;4977355;59;1137111;-73
2022/01/14 02:42:10;;;;;;;14.30;5.40;;;;;;;4.36;100.00;101554.30;4977304;59;1137313;-73
2022/01/14 02:47:17;;;;;;;18.43;7.00;;;;;;;4.35;100.00;101540.80;4977116;59;1137378;-69
2022/01/14 02:52:40;;;;;;;18.43;6.27;;;;;;;4.36;100.00;101531.58;4977179;59;1137228;-69
2022/01/14 02:57:34;;;;;;;14.80;6.00;;;;;;;4.35;100.00;101498.44;4928090;59;1137027;-73
2022/01/14 03:02:46;;;;;;;23.97;8.27;;;;;;;4.36;100.00;101506.70;4965526;59;1137051;-73
2022/01/14 03:07:53;;;;;;;13.08;7.17;;;;;;;4.30;100.00;101487.27;4965864;59;1137322;-72
2022/01/14 03:12:59;;;;;;;23.50;6.67;;;;;;;4.30;100.00;101487.27;4893577;59;1136957;-72
2022/01/14 03:18:05;;;;;;;20.90;6.87;;;;;;;4.23;100.00;101491.89;4888526;60;1137285;-70
2022/01/14 03:23:11;;;;;;;17.00;7.53;;;;;;;4.21;100.00;101488.92;4888834;60;1137251;-72
2022/01/14 03:28:21;;;;;;;12.87;4.80;;;;;;;4.18;100.00;101477.25;4889778;60;1137251;-76
2022/01/14 03:33:27;;;;;;;17.57;5.30;;;;;;;4.17;100.00;101467.67;4886642;60;1136910;-70
2022/01/14 03:38:34;;;;;;;21.07;6.33;;;;;;;4.20;100.00;101481.52;4890274;60;1136854;-72
2022/01/14 03:43:41;;;;;;;13.03;5.70;;;;;;;4.23;100.00;101491.03;4890534;60;1137311;-73
2022/01/14 03:48:46;;;;;;;11.73;4.83;;;;;;;4.27;100.00;101487.86;4890509;60;1134833;-75
2022/01/14 03:53:52;;;;;;;31.20;15.47;;;;;;;4.29;100.00;101487.33;4889125;60;1134929;-74
2022/01/14 03:58:58;;;;;;;18.70;6.43;;;;;;;4.32;100.00;101482.84;4889532;59;1141643;-74
2022/01/14 04:04:05;;;;;;;46.60;26.12;;;;;;;4.35;100.00;101473.56;4880141;60;1139331;-74
2022/01/14 04:09:11;;;;;;;32.67;16.45;;;;;;;4.36;100.00;101477.04;4905995;58;1141133;-73
2022/01/14 04:19:32;;;;;;;13.37;5.67;;;;;;;4.31;100.00;101458.02;5037655;58;1137007;-73
2022/01/14 04:24:37;;;;;;;29.50;9.30;;;;;;;4.28;100.00;101455.05;5037562;58;1139085;-74
2022/01/14 04:29:44;;;;;;;20.10;5.33;;;;;;;4.26;100.00;101441.19;5037968;58;1139265;-72
2022/01/14 04:34:50;;;;;;;17.50;7.10;;;;;;;4.21;100.00;101431.32;5004613;58;1139051;-71
2022/01/14 04:39:56;;;;;;;29.60;11.30;;;;;;;4.18;100.00;101410.48;5005054;58;1139139;-72
2022/01/14 04:45:02;;;;;;;29.70;10.17;;;;;;;4.13;100.00;101403.24;5038206;58;1141191;-73
2022/01/14 04:50:08;;;;;;;24.67;8.50;;;;;;;4.10;100.00;101405.55;5038306;58;1141387;-72
2022/01/14 04:55:18;;;;;;;18.53;8.37;;;;;;;4.08;100.00;101407.81;4946938;58;1139263;-71
2022/01/14 05:00:27;;;;;;;19.63;7.73;;;;;;;4.04;100.00;101422.77;4937321;58;1139084;-77
2022/01/14 05:05:37;;;;;;;28.90;7.93;;;;;;;4.04;100.00;101421.91;4910811;59;1139139;-71
2022/01/14 05:15:58;;;;;;;15.13;7.00;;;;;;;4.03;100.00;101416.28;5050255;58;1138979;-73
2022/01/14 05:21:06;;;;;;;18.93;8.60;;;;;;;4.02;100.00;101389.25;5001616;58;1138936;-75
2022/01/14 05:26:12;;;;;;;11.83;6.73;;;;;;;4.03;100.00;101390.10;4969753;59;1139029;-78
2022/01/14 05:31:18;;;;;;;26.00;9.00;;;;;;;4.03;100.00;101390.10;4956948;59;1139286;-70
2022/01/14 05:36:25;;;;;;;10.80;5.47;;;;;;;4.05;100.00;101389.14;4968167;59;1139273;-73
2022/01/14 05:41:30;;;;;;;13.00;6.33;;;;;;;4.07;100.00;101386.02;4964275;59;1139037;-73
2022/01/14 05:46:36;;;;;;;20.20;7.67;;;;;;;4.10;100.00;101380.67;4969796;59;1139152;-71
2022/01/14 05:51:42;;;;;;;18.87;6.97;;;;;;;4.12;100.00;101366.22;4964301;59;1139025;-76
2022/01/14 05:56:49;;;;;;;10.80;4.53;;;;;;;4.14;100.00;101356.06;4964341;59;1139231;-71
2022/01/14 06:01:55;;;;;;;11.40;6.53;;;;;;;4.21;100.00;101347.54;4933149;59;1138925;-77
2022/01/14 06:07:03;;;;;;;11.50;5.03;;;;;;;4.25;100.00;101346.52;4785273;60;1139360;-70
2022/01/14 06:12:09;;;;;;;45.87;11.53;;;;;;;4.28;100.00;101343.76;4781362;60;1139344;-78
2022/01/14 06:17:15;;;;;;;8.40;4.63;;;;;;;4.29;100.00;101329.75;4787290;61;1141098;-77
2022/01/14 06:22:20;;;;;;;70.87;52.47;;;;;;;4.33;100.00;101325.27;4814483;60;1136974;-74
2022/01/14 06:27:26;;;;;;;41.53;14.47;;;;;;;4.39;100.00;101323.72;4814327;60;1141327;-74
2022/01/14 06:32:41;;;;;;;28.70;11.63;;;;;;;4.46;100.00;101299.83;4812160;60;1141371;-73
2022/01/14 06:37:44;;;;;;;14.63;6.95;;;;;;;4.46;100.00;101299.83;4799541;60;1141287;-76
2022/01/14 06:42:51;;;;;;;23.47;9.50;;;;;;;4.47;100.00;101294.14;4804696;60;1136947;-71
2022/01/14 06:47:56;;;;;;;21.93;5.47;;;;;;;4.48;100.00;101282.30;4793792;60;1137052;-73
2022/01/14 06:53:03;;;;;;;27.07;9.27;;;;;;;4.38;100.00;101248.23;4768873;61;1137076;-72
2022/01/14 06:58:09;;;;;;;15.80;6.37;;;;;;;4.56;100.00;101285.47;4740672;61;1137164;-73
2022/01/14 07:03:15;;;;;;;20.10;9.03;;;;;;;4.58;100.00;101290.17;4961556;58;1136992;-76
2022/01/14 07:08:21;;;;;;;15.37;7.37;;;;;;;4.62;100.00;101283.05;4978836;59;1136909;-75
2022/01/14 07:13:27;;;;;;;15.17;6.97;;;;;;;4.64;100.00;101286.45;4900860;59;1137050;-73
2022/01/14 07:18:33;;;;;;;17.00;7.60;;;;;;;4.70;100.00;101286.22;4814337;60;1136950;-74
2022/01/14 07:23:38;;;;;;;18.17;7.30;;;;;;;4.77;100.00;101285.48;4737390;61;1136854;-74
2022/01/14 07:28:44;;;;;;;13.57;6.30;;;;;;;4.82;100.00;101283.09;4737506;61;1137069;-71
2022/01/14 07:33:50;;;;;;;15.90;4.90;;;;;;;4.84;100.00;101282.56;4747823;61;1136978;-73
2022/01/14 07:38:55;;;;;;;14.43;6.43;;;;;;;4.87;100.00;101270.66;4852390;60;1136991;-74
2022/01/14 07:44:01;;;;;;;8.67;4.93;;;;;;;4.91;100.00;101264.34;4773567;61;1136898;-76
2022/01/14 07:49:07;;;;;;;14.13;5.85;;;;;;;4.96;100.00;101281.19;4874093;60;1134861;-72
2022/01/14 07:54:13;;;;;;;9.50;5.07;;;;;;;5.01;100.00;101273.14;4807150;60;1137032;-79
2022/01/14 07:59:22;;;;;;;8.23;3.70;;;;;;;5.05;100.00;101273.38;4782263;60;1134896;-74
2022/01/14 08:04:32;;;;;;;16.43;5.00;;;;;;;5.19;100.00;101281.54;4875605;59;1134998;-73
2022/01/14 08:09:42;;;;;;;10.50;5.17;;;;;;;5.19;100.00;101281.54;4999699;58;1137027;-75
2022/01/14 08:14:48;;;;;;;16.13;5.53;;;;;;;5.23;100.00;101268.20;4901190;59;21252;-76
2022/01/14 08:19:54;;;;;;;11.00;4.93;;;;;;;5.27;100.00;101260.61;5015675;58;1135125;-74
2022/01/14 08:25:00;;;;;;;9.07;4.83;;;;;;;5.30;100.00;101266.19;5026174;58;1139150;-72
2022/01/14 08:30:08;;;;;;;10.13;4.53;;;;;;;5.35;100.00;101264.19;5008472;58;1136937;-72
2022/01/14 08:35:14;;;;;;;7.90;3.53;;;;;;;5.39;100.00;101254.42;5042822;58;1139010;-78
2022/01/14 08:40:20;;;;;;;7.87;3.77;;;;;;;5.43;100.00;101261.24;5042726;58;1136967;-73
2022/01/14 08:45:26;;;;;;;6.60;3.37;;;;;;;5.48;100.00;101266.69;5007960;58;1137276;-81
2022/01/14 08:50:36;;;;;;;8.40;3.17;;;;;;;5.47;100.00;101249.24;5011535;58;1136792;-76
2022/01/14 08:55:42;;;;;;;5.23;3.03;;;;;;;5.55;100.00;101247.57;4892573;59;1137445;-83
2022/01/14 09:00:50;;;;;;;6.95;3.02;;;;;;;5.55;100.00;101247.57;4992696;58;1136970;-72
2022/01/14 09:05:55;;;;;;;8.80;3.00;;;;;;;5.55;100.00;101237.92;4890018;59;1136991;-81
2022/01/14 09:11:01;;;;;;;6.57;3.60;;;;;;;5.57;100.00;101254.45;4962705;59;1136943;-76
2022/01/14 09:16:07;;;;;;;3.33;2.40;;;;;;;5.56;100.00;101246.65;4962935;59;1137145;-76
2022/01/14 09:21:12;;;;;;;11.10;2.43;;;;;;;5.60;100.00;101245.59;4962788;59;1136880;-84
2022/01/14 09:26:19;;;;;;;6.30;3.23;;;;;;;5.61;100.00;101237.66;4962988;59;1139262;-84
2022/01/14 09:31:25;;;;;;;4.97;2.73;;;;;;;5.64;100.00;101224.87;4962913;59;1137317;-69
2022/01/14 09:36:31;;;;;;;3.67;2.40;;;;;;;5.67;100.00;101205.02;5024330;58;1136889;-71
2022/01/14 09:41:37;;;;;;;6.77;2.23;;;;;;;5.71;100.00;101201.80;4985818;58;1136951;-70
2022/01/14 09:46:43;;;;;;;5.13;2.50;;;;;;;5.80;100.00;101202.23;5017792;58;1136858;-70
2022/01/14 09:51:49;;;;;;;5.30;2.70;;;;;;;5.85;100.00;101209.41;4929791;60;1136992;-68
2022/01/14 09:56:55;;;;;;;8.43;2.20;;;;;;;5.91;100.00;101199.98;5042102;58;1136930;-70
2022/01/14 10:02:01;;;;;;;7.17;3.30;;;;;;;5.95;100.00;101198.92;5042122;58;1136896;-74
2022/01/14 10:07:07;;;;;;;5.37;2.07;;;;;;;6.00;100.00;101189.49;4928226;58;1137083;-76
2022/01/14 10:12:17;;;;;;;5.30;2.37;;;;;;;6.05;100.00;101188.81;4891357;60;1136530;-73
2022/01/14 10:17:24;;;;;;;5.70;2.67;;;;;;;6.09;100.00;101187.75;4866705;60;1137181;-72
2022/01/14 10:22:33;;;;;;;2.80;2.10;;;;;;;6.15;100.00;101183.96;4852023;60;1136953;-76
2022/01/14 10:27:50;;;;;;;10.50;2.67;;;;;;;6.19;100.00;101173.23;4859815;60;1137284;-75
2022/01/14 10:33:08;;;;;;;4.80;2.23;;;;;;;6.22;100.00;101201.14;4866593;60;1138996;-75
2022/01/14 10:38:18;;;;;;;5.10;2.10;;;;;;;6.23;100.00;101172.64;4908671;60;1137316;-76
2022/01/14 10:43:33;;;;;;;6.53;3.57;;;;;;;6.23;100.00;101172.64;4899542;59;1137145;-82
2022/01/14 10:48:43;;;;;;;5.90;2.47;;;;;;;6.23;100.00;101170.01;4836589;60;1137085;-74
2022/01/14 10:53:53;;;;;;;4.20;3.10;;;;;;;6.22;100.00;101172.25;4738730;61;1134893;-78
2022/01/14 10:58:59;;;;;;;6.70;3.13;;;;;;;6.23;100.00;101177.89;4738906;62;1134922;-74
2022/01/14 11:04:13;;;;;;;4.87;2.13;;;;;;;6.22;100.00;101168.30;4738725;62;1135166;-80
2022/01/14 11:09:22;;;;;;;1.93;1.83;;;;;;;6.18;100.00;101168.06;4750791;61;1134873;-91
2022/01/14 11:14:28;;;;;;;7.90;2.70;;;;;;;6.09;100.00;101170.69;4970881;59;1135195;-78
2022/01/14 11:19:34;;;;;;;2.83;2.37;;;;;;;6.04;100.00;101168.73;4968838;59;1135137;-68
2022/01/14 11:24:51;;;;;;;8.67;2.90;;;;;;;6.03;100.00;101191.12;4957523;59;1134883;-72
2022/01/14 11:30:15;;;;;;;4.17;2.10;;;;;;;5.97;100.00;101172.10;4952834;59;1134913;-72
2022/01/14 11:35:27;;;;;;;3.33;1.90;;;;;;;5.95;100.00;101173.13;4977459;59;1133004;-72
2022/01/14 11:40:52;;;;;;;2.63;1.93;;;;;;;5.95;100.00;101179.69;4959070;59;1136896;-74
2022/01/14 11:46:00;;;;;;;4.87;2.50;;;;;;;5.95;100.00;101188.88;4977883;59;1137189;-73
2022/01/14 11:51:08;;;;;;;3.40;2.60;;;;;;;5.98;100.00;101197.44;4887548;60;1136968;-71
2022/01/14 11:56:37;;;;;;;4.53;2.73;;;;;;;6.00;100.00;101181.61;4887678;60;1136987;-73
2022/01/14 12:01:42;;;;;;;3.03;1.83;;;;;;;6.05;100.00;101171.75;4887751;60;1136951;-78
2022/01/14 12:06:59;;;;;;;3.10;1.77;;;;;;;6.09;100.00;101162.80;4904163;60;1137170;-82
2022/01/14 12:12:31;;;;;;;2.77;2.23;;;;;;;6.12;100.00;101163.95;5042060;58;1137744;-72
2022/01/14 12:17:39;;;;;;;2.50;1.97;;;;;;;6.15;100.00;101167.74;5042600;58;1137184;-79
2022/01/14 12:23:08;;;;;;;21.43;4.47;;;;;;;6.21;100.00;101163.98;5042004;58;1136868;-79
2022/01/14 12:28:24;;;;;;;2.90;1.43;;;;;;;6.27;100.00;101156.63;5030613;58;1139162;-79
2022/01/14 12:33:51;;;;;;;1.83;1.60;;;;;;;6.35;100.00;101149.69;4925556;59;1137073;-80
2022/01/14 12:38:57;;;;;;;3.33;2.20;;;;;;;6.39;100.00;101149.08;4845709;60;1137079;-77
2022/01/14 12:44:03;;;;;;;2.40;1.30;;;;;;;6.44;100.00;101154.47;4858046;60;1137146;-81
2022/01/14 12:49:12;;;;;;;4.33;2.20;;;;;;;6.45;100.00;101157.48;4920701;60;1135418;-74
2022/01/14 12:54:19;;;;;;;6.90;2.20;;;;;;;6.47;100.00;101153.47;4890189;60;1137387;-79
2022/01/14 12:59:26;;;;;;;8.03;3.73;;;;;;;6.49;100.00;101160.82;4881083;59;1136919;-74
2022/01/14 13:04:32;;;;;;;4.80;1.67;;;;;;;6.50;100.00;101150.23;4909151;60;1137103;-70
2022/01/14 13:09:43;;;;;;;2.27;1.50;;;;;;;6.55;100.00;101139.03;4837553;60;1137217;-72
2022/01/14 13:14:55;;;;;;;2.67;1.30;;;;;;;6.55;100.00;101142.98;4931765;59;1135126;-73
2022/01/14 13:20:09;;;;;;;7.80;2.70;;;;;;;6.58;100.00;101148.52;4977600;59;1137262;-74
2022/01/14 13:25:21;;;;;;;3.13;2.03;;;;;;;6.60;100.00;101160.66;4977706;59;1137093;-72
2022/01/14 13:30:33;;;;;;;6.30;2.37;;;;;;;6.62;100.00;101156.17;4920970;59;1137489;-74
2022/01/14 13:35:41;;;;;;;3.93;2.07;;;;;;;6.63;100.00;101151.77;4811944;60;1136789;-69
2022/01/14 13:40:55;;;;;;;10.33;3.27;;;;;;;6.63;100.00;101165.77;4884680;60;1134963;-76
2022/01/14 13:46:08;;;;;;;13.17;4.40;;;;;;;6.64;100.00;101156.95;4853985;60;1141135;-76
2022/01/14 13:51:27;;;;;;;10.70;3.23;;;;;;;6.67;100.00;101188.34;4887290;60;1141393;-70
2022/01/14 13:56:33;;;;;;;9.83;3.57;;;;;;;6.64;100.00;101183.70;4887379;60;1141261;-76
2022/01/14 14:01:42;;;;;;;14.13;4.40;;;;;;;6.61;100.00;101197.84;4887426;60;1138954;-70
2022/01/14 14:06:56;;;;;;;9.67;3.77;;;;;;;6.59;100.00;101202.31;4886565;60;1141099;-72
2022/01/14 14:12:07;;;;;;;10.17;3.47;;;;;;;6.60;100.00;101207.11;4885961;59;1139095;-73
2022/01/14 14:17:15;;;;;;;9.60;4.83;;;;;;;6.57;100.00;101207.29;4967949;59;1141273;-70
2022/01/14 14:22:41;;;;;;;10.85;2.72;;;;;;;6.55;100.00;101223.13;4962067;59;1139196;-75
2022/01/14 14:28:04;;;;;;;11.50;7.57;;;;;;;6.57;100.00;101233.08;4959693;59;1141116;-72
2022/01/14 14:33:10;;;;;;;33.40;24.40;;;;;;;6.57;100.00;101243.59;4964355;59;1141373;-73
2022/01/14 14:38:22;;;;;;;14.23;8.40;;;;;;;6.59;100.00;101252.72;4964204;59;1143329;-78
2022/01/14 14:43:27;;;;;;;7.87;2.30;;;;;;;6.53;100.00;101268.80;4964006;59;1139086;-74
2022/01/14 14:48:33;;;;;;;7.43;2.80;;;;;;;6.44;100.00;101290.25;4963773;59;1136731;-77
2022/01/14 14:53:39;;;;;;;2.10;1.23;;;;;;;6.37;99.05;101300.69;4963722;59;1137094;-74
2022/01/14 14:58:44;;;;;;;10.37;4.73;;;;;;;6.27;96.85;101314.70;4963667;59;1135149;-75
2022/01/14 15:03:50;;;;;;;12.07;4.10;;;;;;;6.20;94.94;101308.05;4960704;59;1137185;-76
2022/01/14 15:08:55;;;;;;;11.33;4.27;;;;;;;6.10;98.34;101330.42;4958243;59;1136984;-72
2022/01/14 15:14:03;;;;;;;15.00;6.73;;;;;;;6.02;97.50;101332.52;5000808;59;1137177;-73
2022/01/14 15:19:09;;;;;;;14.53;5.40;;;;;;;5.91;98.69;101345.69;5000673;59;1136993;-78
2022/01/14 15:24:14;;;;;;;15.73;5.00;;;;;;;5.85;96.09;101352.94;4999833;59;1137252;-71
2022/01/14 15:29:20;;;;;;;16.17;5.13;;;;;;;5.79;97.99;101361.96;4973752;58;1136951;-72
2022/01/14 15:34:27;;;;;;;15.37;9.03;;;;;;;5.75;97.23;101377.91;4924876;59;1137023;-71
2022/01/14 15:39:33;;;;;;;44.77;21.20;;;;;;;5.69;96.55;101389.97;4890929;59;1136946;-75
2022/01/14 15:44:38;;;;;;;19.23;6.63;;;;;;;5.63;97.11;101390.65;4949661;59;1138960;-77
2022/01/14 15:49:43;;;;;;;38.02;12.23;;;;;;;5.58;96.62;101392.61;4948126;59;1134888;-75
2022/01/14 15:54:49;;;;;;;23.43;6.50;;;;;;;5.53;96.22;101409.00;4959759;59;1136901;-71
2022/01/14 15:59:54;;;;;;;22.23;5.70;;;;;;;5.53;94.16;101422.58;4960323;59;1134827;-80
2022/01/14 16:05:00;;;;;;;10.13;3.77;;;;;;;5.48;97.82;101438.53;4959780;58;1134937;-74
2022/01/14 16:10:06;;;;;;;27.77;7.00;;;;;;;5.46;98.07;101447.37;4935777;58;1134904;-78
2022/01/14 16:15:12;;;;;;;14.93;5.23;;;;;;;5.37;98.24;101449.91;4920280;58;1134828;-71
2022/01/14 16:20:19;;;;;;;49.53;23.73;;;;;;;5.31;97.65;101444.92;4939936;59;1134975;-72
2022/01/14 16:25:24;;;;;;;45.10;20.13;;;;;;;5.21;95.91;101447.51;4915349;58;1137174;-74
2022/01/14 16:30:30;;;;;;;14.07;4.60;;;;;;;5.14;97.94;101462.66;4923513;58;1136908;-73
2022/01/14 16:35:36;;;;;;;35.47;11.50;;;;;;;5.07;97.22;101473.43;4921953;58;1134206;-71
2022/01/14 16:40:41;;;;;;;89.30;28.60;;;;;;;5.00;97.92;101468.91;4940666;58;1136956;-71
2022/01/14 16:45:47;;;;;;;29.57;15.87;;;;;;;4.97;97.91;101474.72;4941564;58;1137164;-77
2022/01/14 16:50:53;;;;;;;36.60;10.40;;;;;;;4.89;98.37;101484.17;4923501;58;1137342;-76
2022/01/14 16:56:04;;;;;;;18.48;7.58;;;;;;;4.84;99.78;101488.31;4925212;58;1136931;-75
2022/01/14 17:01:08;;;;;;;115.30;39.70;;;;;;;4.76;100.00;101499.97;4946899;58;1134876;-76
2022/01/14 17:06:14;;;;;;;33.93;13.13;;;;;;;4.70;100.00;101505.47;4901150;59;1141408;-70
2022/01/14 17:11:20;;;;;;;20.07;7.47;;;;;;;4.64;100.00;101525.33;4938977;59;1139012;-74
2022/01/14 17:16:25;;;;;;;27.63;7.60;;;;;;;4.58;99.85;101529.88;4858257;59;1137171;-74
2022/01/14 17:21:31;;;;;;;49.83;17.07;;;;;;;4.49;100.00;101531.98;4846354;59;1132897;-75
2022/01/14 17:26:36;;;;;;;31.23;7.10;;;;;;;4.38;100.00;101534.15;4900955;59;1136909;-76
2022/01/14 17:31:44;;;;;;;20.95;6.70;;;;;;;4.28;100.00;101536.70;4897998;59;1138927;-70
2022/01/14 17:36:52;;;;;;;33.80;8.00;;;;;;;4.23;100.00;101565.66;4889050;59;1139087;-73
2022/01/14 17:41:58;;;;;;;25.20;7.77;;;;;;;4.19;100.00;101576.69;4909232;59;1139207;-75
2022/01/14 17:47:05;;;;;;;119.13;34.30;;;;;;;4.13;100.00;101587.35;4913560;58;1139064;-75
2022/01/14 17:52:11;;;;;;;32.80;8.17;;;;;;;4.11;100.00;101598.81;4949162;59;1143172;-74
2022/01/14 17:57:16;;;;;;;25.67;7.63;;;;;;;4.04;100.00;101603.83;4956194;58;1139217;-72
2022/01/14 18:02:22;;;;;;;30.90;9.93;;;;;;;4.00;100.00;101599.59;4988574;59;1138991;-75
2022/01/14 18:07:27;;;;;;;22.73;5.67;;;;;;;3.91;100.00;101592.06;4988506;59;1139031;-74
2022/01/14 18:17:56;;;;;;;20.25;5.87;;;;;;;3.67;100.00;101592.39;4911376;59;1139086;-72
2022/01/14 18:23:02;;;;;;;37.08;15.35;;;;;;;3.58;100.00;101596.16;4921477;59;1139305;-71
2022/01/14 18:28:07;;;;;;;26.07;8.10;;;;;;;3.53;100.00;101608.52;4952551;59;1141175;-72
2022/01/14 18:33:13;;;;;;;24.90;8.53;;;;;;;3.46;100.00;101614.86;4977702;59;1139332;-72
2022/01/14 18:38:19;;;;;;;32.30;8.87;;;;;;;3.39;100.00;101611.56;4996759;58;1139234;-73
2022/01/14 18:43:25;;;;;;;30.67;7.63;;;;;;;3.34;100.00;101613.94;5031057;58;1139005;-83
2022/01/14 18:48:30;;;;;;;24.37;7.07;;;;;;;3.28;100.00;101618.02;4936869;58;1139006;-75
2022/01/14 18:53:35;;;;;;;36.30;9.83;;;;;;;3.23;100.00;101618.16;4910034;59;1139217;-74
2022/01/14 18:58:44;;;;;;;32.90;9.07;;;;;;;3.17;100.00;101634.04;4909999;59;1139453;-77
2022/01/14 19:03:49;;;;;;;24.07;6.67;;;;;;;3.10;100.00;101642.49;4907430;60;1138955;-74
2022/01/14 19:08:55;;;;;;;29.47;7.97;;;;;;;3.04;100.00;101644.00;4908042;59;1139114;-74
2022/01/14 19:14:08;;;;;;;27.53;7.57;;;;;;;3.00;100.00;101654.56;4911728;58;1139071;-71
2022/01/14 19:19:20;;;;;;;;;;;;;;;3.00;100.00;101662.41;4877914;59;1139116;-71
2022/01/14 19:24:23;;;;;;;18.37;5.47;;;;;;;2.92;100.00;101666.52;4950641;59;974285;-70
2022/01/14 19:29:29;;;;;;;27.10;8.00;;;;;;;2.87;100.00;101674.96;4912094;59;1136908;-72
2022/01/14 19:34:36;;;;;;;32.23;6.77;;;;;;;2.80;100.00;101675.56;4916670;59;1138789;-75
2022/01/14 19:39:44;;;;;;;13.93;5.20;;;;;;;2.76;100.00;101686.98;4888534;59;1139227;-81
2022/01/14 19:44:51;;;;;;;40.87;10.47;;;;;;;2.71;100.00;101698.02;4947090;59;1139377;-79
2022/01/14 19:49:56;;;;;;;39.07;8.10;;;;;;;2.67;100.00;101695.52;4948591;59;1141040;-70
2022/01/14 19:55:02;;;;;;;37.90;8.27;;;;;;;2.62;100.00;101704.77;4948953;59;1139080;-74
2022/01/14 20:00:10;;;;;;;11.90;5.23;;;;;;;2.61;100.00;101706.98;4905545;59;1139034;-79
2022/01/14 20:05:25;;;;;;;29.67;7.50;;;;;;;2.48;100.00;101709.05;4936083;59;1139096;-71
2022/01/14 20:10:31;;;;;;;28.37;5.40;;;;;;;2.48;100.00;101709.05;4949265;59;1139003;-74
2022/01/14 20:15:37;;;;;;;25.60;6.03;;;;;;;2.44;100.00;101715.71;4970281;59;1137029;-72
2022/01/14 20:20:43;;;;;;;28.83;7.00;;;;;;;2.42;100.00;101719.66;4973257;59;1137011;-74
2022/01/14 20:25:51;;;;;;;37.30;5.17;;;;;;;2.42;100.00;101734.47;4979599;59;1136894;-69
2022/01/14 20:30:56;;;;;;;31.40;7.30;;;;;;;2.39;100.00;101730.62;4979663;59;1137020;-79
2022/01/14 20:36:03;;;;;;;30.57;11.10;;;;;;;2.39;100.00;101741.06;4973266;59;1136983;-78
2022/01/14 20:41:08;;;;;;;39.83;10.23;;;;;;;2.36;100.00;101741.13;4971279;59;1139055;-75
2022/01/14 20:46:14;;;;;;;26.30;7.17;;;;;;;2.34;100.00;101737.25;4953289;58;1139175;-76
2022/01/14 20:51:25;;;;;;;34.93;9.30;;;;;;;2.33;100.00;101743.36;4972505;59;1136911;-73
2022/01/14 20:56:29;;;;;;;42.77;9.80;;;;;;;2.29;100.00;101751.33;4979351;59;1137222;-77
2022/01/14 21:01:35;;;;;;;35.07;10.77;;;;;;;2.25;100.00;101760.11;4910767;59;1136855;-79
2022/01/14 21:06:40;;;;;;;35.83;8.93;;;;;;;2.22;100.00;101754.52;4976929;59;1139051;-86
2022/01/14 21:11:47;;;;;;;46.60;10.77;;;;;;;2.19;100.00;101755.89;4976928;59;1136845;-86
2022/01/14 21:16:54;;;;;;;38.23;8.73;;;;;;;2.15;100.00;101767.28;4979146;59;1139233;-79
2022/01/14 21:22:00;;;;;;;31.83;10.57;;;;;;;2.10;100.00;101758.72;4977532;59;1136931;-78
2022/01/14 21:27:07;;;;;;;34.83;8.43;;;;;;;2.05;100.00;101769.70;4978658;59;1139266;-72
2022/01/14 21:32:13;;;;;;;31.83;7.50;;;;;;;2.04;100.00;101783.63;4978931;59;1137115;-75
2022/01/14 21:37:19;;;;;;;28.30;7.47;;;;;;;2.01;100.00;101785.00;4979024;59;1136974;-81
2022/01/14 21:42:25;;;;;;;27.33;7.57;;;;;;;1.95;100.00;101786.45;4934336;59;1134845;-71
2022/01/14 21:47:31;;;;;;;27.17;6.90;;;;;;;1.93;100.00;101789.54;4938932;59;1134958;-78
2022/01/14 21:52:37;;;;;;;41.33;8.40;;;;;;;1.88;100.00;101780.50;4951455;58;1138886;-74
2022/01/14 21:57:47;;;;;;;26.33;6.70;;;;;;;1.83;100.00;101784.12;4954766;58;1138982;-73
2022/01/14 22:02:52;;;;;;;25.40;5.73;;;;;;;1.77;100.00;101779.88;4938100;58;1139090;-78
2022/01/14 22:07:58;;;;;;;26.13;5.93;;;;;;;1.72;100.00;101776.50;4910334;60;1139137;-75
2022/01/14 22:13:09;;;;;;;37.43;8.60;;;;;;;1.67;100.00;101794.88;4983927;59;1139221;-74
2022/01/14 22:18:18;;;;;;;31.00;7.30;;;;;;;1.65;100.00;101799.26;4931819;59;1139092;-80
2022/01/14 22:23:24;;;;;;;27.73;5.47;;;;;;;1.64;100.00;101794.93;4889981;60;1139012;-78
2022/01/14 22:28:30;;;;;;;24.33;6.90;;;;;;;1.59;100.00;101800.67;4771683;60;1139046;-78
2022/01/14 22:33:35;;;;;;;26.83;8.03;;;;;;;1.54;100.00;101806.86;4768793;61;1139017;-73
2022/01/14 22:38:41;;;;;;;31.17;9.60;;;;;;;1.51;100.00;101797.81;4852241;60;1139049;-76
2022/01/14 22:43:48;;;;;;;37.63;8.63;;;;;;;1.48;100.00;101797.42;4778405;61;1139058;-71
2022/01/14 22:48:54;;;;;;;31.40;6.30;;;;;;;1.41;100.00;101794.52;4814137;60;1139132;-74
2022/01/14 22:54:00;;;;;;;31.13;9.33;;;;;;;1.36;100.00;101785.50;4814543;60;1139262;-72
2022/01/14 22:59:05;;;;;;;44.83;8.63;;;;;;;1.34;100.00;101787.72;4889725;60;1139041;-74
2022/01/14 23:04:12;;;;;;;30.13;7.37;;;;;;;1.28;100.00;101779.56;4810464;61;1139055;-73
2022/01/14 23:09:17;;;;;;;18.42;4.85;;;;;;;1.28;100.00;101776.95;4796766;61;1139070;-76
2022/01/14 23:14:25;;;;;;;29.10;5.93;;;;;;;1.24;100.00;101775.73;4737474;62;1139088;-75
2022/01/14 23:19:30;;;;;;;16.37;4.37;;;;;;;1.18;100.00;101774.56;4735740;62;1139320;-72
2022/01/14 23:24:36;;;;;;;20.50;5.47;;;;;;;1.17;100.00;101789.34;4735679;62;1139005;-70
2022/01/14 23:29:41;;;;;;;22.33;4.50;;;;;;;1.13;100.00;101784.20;4735450;62;1139493;-75
2022/01/14 23:34:47;;;;;;;32.93;5.90;;;;;;;1.10;100.00;101781.20;4736141;62;1139334;-76